sensor_id;sensor_type;location;lat;lon;timestamp;P1;durP1;ratioP1;P2;durP2;ratioP2
48161;SDS011;33950;48.154;16.316;2023-03-14T00:01:30;13.57;;;5.30;;
48161;SDS011;33950;48.154;16.316;2023-03-14T00:04:16;9.57;;;4.75;;
48161;SDS011;33950;48.154;16.316;2023-03-14T00:07:03;17.15;;;6.35;;
48161;SDS011;33950;48.154;16.316;2023-03-14T00:09:49;14.75;;;6.32;;
48161;SDS011;33950;48.154;16.316;2023-03-14T00:12:35;11.77;;;5.82;;
48161;SDS011;33950;48.154;16.316;2023-03-14T00:15:21;14.50;;;5.25;;
48161;SDS011;33950;48.154;16.316;2023-03-14T00:18:09;13.43;;;4.70;;
48161;SDS011;33950;48.154;16.316;2023-03-14T00:20:56;13.90;;;4.65;;
48161;SDS011;33950;48.154;16.316;2023-03-14T00:23:43;9.10;;;4.85;;
48161;SDS011;33950;48.154;16.316;2023-03-14T00:26:30;16.17;;;4.95;;
48161;SDS011;33950;48.154;16.316;2023-03-14T00:29:16;10.40;;;4.75;;
48161;SDS011;33950;48.154;16.316;2023-03-14T00:32:02;11.48;;;4.63;;
48161;SDS011;33950;48.154;16.316;2023-03-14T00:34:50;14.82;;;5.07;;
48161;SDS011;33950;48.154;16.316;2023-03-14T00:37:36;13.45;;;5.07;;
48161;SDS011;33950;48.154;16.316;2023-03-14T00:40:22;11.93;;;5.47;;
48161;SDS011;33950;48.154;16.316;2023-03-14T00:43:08;12.27;;;4.35;;
48161;SDS011;33950;48.154;16.316;2023-03-14T00:45:54;10.15;;;4.70;;
48161;SDS011;33950;48.154;16.316;2023-03-14T00:48:40;15.73;;;5.25;;
48161;SDS011;33950;48.154;16.316;2023-03-14T00:51:28;11.75;;;5.30;;
48161;SDS011;33950;48.154;16.316;2023-03-14T00:54:14;14.65;;;5.38;;
48161;SDS011;33950;48.154;16.316;2023-03-14T00:57:00;13.57;;;5.95;;
48161;SDS011;33950;48.154;16.316;2023-03-14T00:59:46;37.83;;;5.55;;
48161;SDS011;33950;48.154;16.316;2023-03-14T01:02:32;10.48;;;4.65;;
48161;SDS011;33950;48.154;16.316;2023-03-14T01:05:18;11.35;;;5.20;;
48161;SDS011;33950;48.154;16.316;2023-03-14T01:08:06;10.10;;;4.38;;
48161;SDS011;33950;48.154;16.316;2023-03-14T01:10:52;8.82;;;4.25;;
48161;SDS011;33950;48.154;16.316;2023-03-14T01:13:38;15.77;;;4.75;;
48161;SDS011;33950;48.154;16.316;2023-03-14T01:16:25;12.48;;;5.57;;
48161;SDS011;33950;48.154;16.316;2023-03-14T01:19:12;9.73;;;5.07;;
48161;SDS011;33950;48.154;16.316;2023-03-14T01:21:58;10.27;;;4.53;;
48161;SDS011;33950;48.154;16.316;2023-03-14T01:24:46;12.95;;;5.03;;
48161;SDS011;33950;48.154;16.316;2023-03-14T01:27:32;13.93;;;5.60;;
48161;SDS011;33950;48.154;16.316;2023-03-14T01:30:18;15.02;;;5.10;;
48161;SDS011;33950;48.154;16.316;2023-03-14T01:33:05;13.43;;;5.10;;
48161;SDS011;33950;48.154;16.316;2023-03-14T01:35:51;11.18;;;5.38;;
48161;SDS011;33950;48.154;16.316;2023-03-14T01:38:37;12.35;;;4.80;;
48161;SDS011;33950;48.154;16.316;2023-03-14T01:41:26;12.73;;;5.13;;
48161;SDS011;33950;48.154;16.316;2023-03-14T01:44:12;13.57;;;5.55;;
48161;SDS011;33950;48.154;16.316;2023-03-14T01:46:59;13.13;;;6.15;;
48161;SDS011;33950;48.154;16.316;2023-03-14T01:49:45;13.68;;;5.65;;
48161;SDS011;33950;48.154;16.316;2023-03-14T01:52:34;12.48;;;6.53;;
48161;SDS011;33950;48.154;16.316;2023-03-14T01:55:27;11.50;;;5.35;;
48161;SDS011;33950;48.154;16.316;2023-03-14T01:58:14;10.32;;;4.90;;
48161;SDS011;33950;48.154;16.316;2023-03-14T02:01:02;21.67;;;5.53;;
48161;SDS011;33950;48.154;16.316;2023-03-14T02:03:50;10.60;;;4.75;;
48161;SDS011;33950;48.154;16.316;2023-03-14T02:06:41;8.73;;;4.78;;
48161;SDS011;33950;48.154;16.316;2023-03-14T02:09:33;15.55;;;6.65;;
48161;SDS011;33950;48.154;16.316;2023-03-14T02:12:19;12.10;;;6.03;;
48161;SDS011;33950;48.154;16.316;2023-03-14T02:15:09;20.80;;;6.72;;
48161;SDS011;33950;48.154;16.316;2023-03-14T02:17:55;16.38;;;5.65;;
48161;SDS011;33950;48.154;16.316;2023-03-14T02:20:47;12.20;;;5.10;;
48161;SDS011;33950;48.154;16.316;2023-03-14T02:23:39;17.33;;;5.40;;
48161;SDS011;33950;48.154;16.316;2023-03-14T02:26:34;11.30;;;4.90;;
48161;SDS011;33950;48.154;16.316;2023-03-14T02:29:25;10.35;;;4.97;;
48161;SDS011;33950;48.154;16.316;2023-03-14T02:32:12;12.20;;;5.45;;
48161;SDS011;33950;48.154;16.316;2023-03-14T02:35:00;9.05;;;4.15;;
48161;SDS011;33950;48.154;16.316;2023-03-14T02:37:52;11.57;;;4.93;;
48161;SDS011;33950;48.154;16.316;2023-03-14T02:40:40;18.50;;;5.22;;
48161;SDS011;33950;48.154;16.316;2023-03-14T02:43:26;9.73;;;4.65;;
48161;SDS011;33950;48.154;16.316;2023-03-14T02:46:16;11.82;;;4.22;;
48161;SDS011;33950;48.154;16.316;2023-03-14T02:49:05;12.88;;;5.10;;
48161;SDS011;33950;48.154;16.316;2023-03-14T02:51:53;12.80;;;4.22;;
48161;SDS011;33950;48.154;16.316;2023-03-14T02:54:39;11.88;;;4.88;;
48161;SDS011;33950;48.154;16.316;2023-03-14T02:57:25;10.90;;;4.03;;
48161;SDS011;33950;48.154;16.316;2023-03-14T03:00:12;17.50;;;3.72;;
48161;SDS011;33950;48.154;16.316;2023-03-14T03:02:59;16.35;;;4.82;;
48161;SDS011;33950;48.154;16.316;2023-03-14T03:05:47;8.05;;;4.25;;
48161;SDS011;33950;48.154;16.316;2023-03-14T03:08:35;12.98;;;4.35;;
48161;SDS011;33950;48.154;16.316;2023-03-14T03:11:21;9.77;;;4.47;;
48161;SDS011;33950;48.154;16.316;2023-03-14T03:14:07;14.95;;;4.70;;
48161;SDS011;33950;48.154;16.316;2023-03-14T03:16:54;13.27;;;4.00;;
48161;SDS011;33950;48.154;16.316;2023-03-14T03:19:41;10.55;;;4.07;;
48161;SDS011;33950;48.154;16.316;2023-03-14T03:22:27;13.27;;;4.68;;
48161;SDS011;33950;48.154;16.316;2023-03-14T03:25:14;13.18;;;4.70;;
48161;SDS011;33950;48.154;16.316;2023-03-14T03:28:00;9.25;;;4.78;;
48161;SDS011;33950;48.154;16.316;2023-03-14T03:30:47;10.07;;;4.28;;
48161;SDS011;33950;48.154;16.316;2023-03-14T03:33:33;14.63;;;4.97;;
48161;SDS011;33950;48.154;16.316;2023-03-14T03:36:21;16.13;;;5.03;;
48161;SDS011;33950;48.154;16.316;2023-03-14T03:39:08;14.23;;;5.43;;
48161;SDS011;33950;48.154;16.316;2023-03-14T03:41:54;11.27;;;5.32;;
48161;SDS011;33950;48.154;16.316;2023-03-14T03:44:40;9.98;;;4.95;;
48161;SDS011;33950;48.154;16.316;2023-03-14T03:47:26;11.23;;;4.85;;
48161;SDS011;33950;48.154;16.316;2023-03-14T03:50:13;11.63;;;4.85;;
48161;SDS011;33950;48.154;16.316;2023-03-14T03:53:00;10.05;;;4.80;;
48161;SDS011;33950;48.154;16.316;2023-03-14T03:55:48;13.80;;;5.35;;
48161;SDS011;33950;48.154;16.316;2023-03-14T03:58:34;12.82;;;5.32;;
48161;SDS011;33950;48.154;16.316;2023-03-14T04:01:20;10.65;;;5.40;;
48161;SDS011;33950;48.154;16.316;2023-03-14T04:04:06;14.73;;;5.32;;
48161;SDS011;33950;48.154;16.316;2023-03-14T04:06:52;11.10;;;5.53;;
48161;SDS011;33950;48.154;16.316;2023-03-14T04:09:40;13.73;;;5.65;;
48161;SDS011;33950;48.154;16.316;2023-03-14T04:12:26;10.60;;;5.95;;
48161;SDS011;33950;48.154;16.316;2023-03-14T04:15:12;11.57;;;6.15;;
48161;SDS011;33950;48.154;16.316;2023-03-14T04:17:58;16.33;;;5.82;;
48161;SDS011;33950;48.154;16.316;2023-03-14T04:20:44;10.85;;;5.10;;
48161;SDS011;33950;48.154;16.316;2023-03-14T04:23:30;11.40;;;5.32;;
48161;SDS011;33950;48.154;16.316;2023-03-14T04:26:18;15.50;;;5.63;;
48161;SDS011;33950;48.154;16.316;2023-03-14T04:29:04;12.02;;;5.53;;
48161;SDS011;33950;48.154;16.316;2023-03-14T04:31:50;12.35;;;5.43;;
48161;SDS011;33950;48.154;16.316;2023-03-14T04:34:36;11.05;;;4.88;;
48161;SDS011;33950;48.154;16.316;2023-03-14T04:37:22;9.85;;;5.38;;
48161;SDS011;33950;48.154;16.316;2023-03-14T04:40:09;8.88;;;4.30;;
48161;SDS011;33950;48.154;16.316;2023-03-14T04:42:57;13.52;;;4.40;;
48161;SDS011;33950;48.154;16.316;2023-03-14T04:45:43;10.13;;;4.22;;
48161;SDS011;33950;48.154;16.316;2023-03-14T04:48:29;11.02;;;3.92;;
48161;SDS011;33950;48.154;16.316;2023-03-14T04:51:16;12.63;;;3.97;;
48161;SDS011;33950;48.154;16.316;2023-03-14T04:54:02;9.48;;;3.67;;
48161;SDS011;33950;48.154;16.316;2023-03-14T04:56:48;8.55;;;4.38;;
48161;SDS011;33950;48.154;16.316;2023-03-14T04:59:35;6.20;;;3.97;;
48161;SDS011;33950;48.154;16.316;2023-03-14T05:02:21;6.40;;;3.75;;
48161;SDS011;33950;48.154;16.316;2023-03-14T05:05:08;13.60;;;3.67;;
48161;SDS011;33950;48.154;16.316;2023-03-14T05:07:54;8.40;;;3.85;;
48161;SDS011;33950;48.154;16.316;2023-03-14T05:10:40;11.98;;;4.15;;
48161;SDS011;33950;48.154;16.316;2023-03-14T05:13:26;8.30;;;3.97;;
48161;SDS011;33950;48.154;16.316;2023-03-14T05:16:13;9.00;;;3.67;;
48161;SDS011;33950;48.154;16.316;2023-03-14T05:18:59;7.13;;;3.50;;
48161;SDS011;33950;48.154;16.316;2023-03-14T05:21:46;25.17;;;5.35;;
48161;SDS011;33950;48.154;16.316;2023-03-14T05:24:32;14.07;;;4.68;;
48161;SDS011;33950;48.154;16.316;2023-03-14T05:27:19;7.65;;;4.05;;
48161;SDS011;33950;48.154;16.316;2023-03-14T05:30:05;8.55;;;4.18;;
48161;SDS011;33950;48.154;16.316;2023-03-14T05:32:53;11.93;;;4.90;;
48161;SDS011;33950;48.154;16.316;2023-03-14T05:35:39;7.07;;;3.83;;
48161;SDS011;33950;48.154;16.316;2023-03-14T05:38:26;12.40;;;4.15;;
48161;SDS011;33950;48.154;16.316;2023-03-14T05:41:13;12.88;;;5.00;;
48161;SDS011;33950;48.154;16.316;2023-03-14T05:43:59;11.77;;;5.03;;
48161;SDS011;33950;48.154;16.316;2023-03-14T05:46:45;12.95;;;4.95;;
48161;SDS011;33950;48.154;16.316;2023-03-14T05:49:32;17.65;;;5.68;;
48161;SDS011;33950;48.154;16.316;2023-03-14T05:52:18;12.32;;;4.85;;
48161;SDS011;33950;48.154;16.316;2023-03-14T05:55:05;10.13;;;4.78;;
48161;SDS011;33950;48.154;16.316;2023-03-14T05:57:52;13.85;;;5.85;;
48161;SDS011;33950;48.154;16.316;2023-03-14T06:00:38;13.48;;;5.60;;
48161;SDS011;33950;48.154;16.316;2023-03-14T06:03:24;12.57;;;5.18;;
48161;SDS011;33950;48.154;16.316;2023-03-14T06:06:11;18.80;;;5.63;;
48161;SDS011;33950;48.154;16.316;2023-03-14T06:08:57;17.02;;;5.60;;
48161;SDS011;33950;48.154;16.316;2023-03-14T06:11:43;18.65;;;5.78;;
48161;SDS011;33950;48.154;16.316;2023-03-14T06:14:31;15.25;;;5.70;;
48161;SDS011;33950;48.154;16.316;2023-03-14T06:17:17;15.73;;;6.65;;
48161;SDS011;33950;48.154;16.316;2023-03-14T06:20:04;9.57;;;5.47;;
48161;SDS011;33950;48.154;16.316;2023-03-14T06:22:52;10.52;;;5.57;;
48161;SDS011;33950;48.154;16.316;2023-03-14T06:25:38;20.67;;;6.03;;
48161;SDS011;33950;48.154;16.316;2023-03-14T06:28:24;15.77;;;6.20;;
48161;SDS011;33950;48.154;16.316;2023-03-14T06:31:10;14.50;;;6.03;;
48161;SDS011;33950;48.154;16.316;2023-03-14T06:33:56;14.15;;;6.57;;
48161;SDS011;33950;48.154;16.316;2023-03-14T06:36:42;13.43;;;6.70;;
48161;SDS011;33950;48.154;16.316;2023-03-14T06:39:30;18.27;;;5.70;;
48161;SDS011;33950;48.154;16.316;2023-03-14T06:42:16;15.20;;;7.47;;
48161;SDS011;33950;48.154;16.316;2023-03-14T06:45:03;16.80;;;6.82;;
48161;SDS011;33950;48.154;16.316;2023-03-14T06:47:49;14.38;;;6.30;;
48161;SDS011;33950;48.154;16.316;2023-03-14T06:50:36;16.55;;;6.65;;
48161;SDS011;33950;48.154;16.316;2023-03-14T06:53:22;19.15;;;6.45;;
48161;SDS011;33950;48.154;16.316;2023-03-14T06:56:09;20.05;;;6.82;;
48161;SDS011;33950;48.154;16.316;2023-03-14T06:58:56;16.70;;;7.07;;
48161;SDS011;33950;48.154;16.316;2023-03-14T07:01:42;12.98;;;6.35;;
48161;SDS011;33950;48.154;16.316;2023-03-14T07:04:28;18.65;;;7.45;;
48161;SDS011;33950;48.154;16.316;2023-03-14T07:07:14;16.80;;;5.95;;
48161;SDS011;33950;48.154;16.316;2023-03-14T07:10:00;13.48;;;6.40;;
48161;SDS011;33950;48.154;16.316;2023-03-14T07:12:47;29.67;;;7.15;;
48161;SDS011;33950;48.154;16.316;2023-03-14T07:15:34;22.95;;;7.45;;
48161;SDS011;33950;48.154;16.316;2023-03-14T07:18:20;18.58;;;6.65;;
48161;SDS011;33950;48.154;16.316;2023-03-14T07:21:06;16.80;;;6.32;;
48161;SDS011;33950;48.154;16.316;2023-03-14T07:23:54;11.27;;;6.35;;
48161;SDS011;33950;48.154;16.316;2023-03-14T07:26:40;13.73;;;7.15;;
48161;SDS011;33950;48.154;16.316;2023-03-14T07:29:28;19.75;;;6.68;;
48161;SDS011;33950;48.154;16.316;2023-03-14T07:32:14;12.20;;;4.40;;
48161;SDS011;33950;48.154;16.316;2023-03-14T07:35:00;13.30;;;6.38;;
48161;SDS011;33950;48.154;16.316;2023-03-14T07:37:46;11.60;;;4.97;;
48161;SDS011;33950;48.154;16.316;2023-03-14T07:40:32;11.70;;;4.28;;
48161;SDS011;33950;48.154;16.316;2023-03-14T07:43:18;11.88;;;4.20;;
48161;SDS011;33950;48.154;16.316;2023-03-14T07:46:06;9.38;;;2.92;;
48161;SDS011;33950;48.154;16.316;2023-03-14T07:48:52;6.45;;;2.40;;
48161;SDS011;33950;48.154;16.316;2023-03-14T07:51:38;7.22;;;1.48;;
48161;SDS011;33950;48.154;16.316;2023-03-14T07:54:24;2.25;;;0.93;;
48161;SDS011;33950;48.154;16.316;2023-03-14T07:57:10;2.08;;;0.93;;
48161;SDS011;33950;48.154;16.316;2023-03-14T07:59:56;1.80;;;0.98;;
48161;SDS011;33950;48.154;16.316;2023-03-14T08:02:44;6.53;;;0.80;;
48161;SDS011;33950;48.154;16.316;2023-03-14T08:05:30;2.22;;;0.80;;
48161;SDS011;33950;48.154;16.316;2023-03-14T08:08:19;0.95;;;0.70;;
48161;SDS011;33950;48.154;16.316;2023-03-14T08:11:05;0.95;;;0.60;;
48161;SDS011;33950;48.154;16.316;2023-03-14T08:13:54;0.50;;;0.40;;
48161;SDS011;33950;48.154;16.316;2023-03-14T08:16:40;1.55;;;0.30;;
48161;SDS011;33950;48.154;16.316;2023-03-14T08:19:27;4.10;;;0.65;;
48161;SDS011;33950;48.154;16.316;2023-03-14T08:22:13;1.80;;;0.45;;
48161;SDS011;33950;48.154;16.316;2023-03-14T08:24:59;1.60;;;0.30;;
48161;SDS011;33950;48.154;16.316;2023-03-14T08:27:45;4.40;;;0.82;;
48161;SDS011;33950;48.154;16.316;2023-03-14T08:30:31;2.35;;;1.23;;
48161;SDS011;33950;48.154;16.316;2023-03-14T08:33:18;5.18;;;0.90;;
48161;SDS011;33950;48.154;16.316;2023-03-14T08:36:05;3.33;;;1.27;;
48161;SDS011;33950;48.154;16.316;2023-03-14T08:38:52;2.80;;;1.05;;
48161;SDS011;33950;48.154;16.316;2023-03-14T08:41:38;4.00;;;1.45;;
48161;SDS011;33950;48.154;16.316;2023-03-14T08:44:29;1.52;;;0.80;;
48161;SDS011;33950;48.154;16.316;2023-03-14T08:47:15;1.40;;;0.47;;
48161;SDS011;33950;48.154;16.316;2023-03-14T08:50:01;0.30;;;0.10;;
48161;SDS011;33950;48.154;16.316;2023-03-14T08:52:50;0.43;;;0.20;;
48161;SDS011;33950;48.154;16.316;2023-03-14T08:55:36;3.70;;;0.32;;
48161;SDS011;33950;48.154;16.316;2023-03-14T08:58:23;4.43;;;0.40;;
48161;SDS011;33950;48.154;16.316;2023-03-14T09:01:09;1.33;;;0.77;;
48161;SDS011;33950;48.154;16.316;2023-03-14T09:03:56;5.45;;;1.42;;
48161;SDS011;33950;48.154;16.316;2023-03-14T09:06:42;3.90;;;0.88;;
48161;SDS011;33950;48.154;16.316;2023-03-14T09:09:30;3.13;;;0.90;;
48161;SDS011;33950;48.154;16.316;2023-03-14T09:12:16;2.65;;;0.90;;
48161;SDS011;33950;48.154;16.316;2023-03-14T09:15:02;12.35;;;2.60;;
48161;SDS011;33950;48.154;16.316;2023-03-14T09:17:49;11.07;;;3.80;;
48161;SDS011;33950;48.154;16.316;2023-03-14T09:20:35;16.63;;;4.03;;
48161;SDS011;33950;48.154;16.316;2023-03-14T09:23:21;14.40;;;4.20;;
48161;SDS011;33950;48.154;16.316;2023-03-14T09:26:08;16.38;;;4.15;;
48161;SDS011;33950;48.154;16.316;2023-03-14T09:28:54;9.05;;;2.83;;
48161;SDS011;33950;48.154;16.316;2023-03-14T09:31:41;10.88;;;1.95;;
48161;SDS011;33950;48.154;16.316;2023-03-14T09:34:27;3.75;;;1.88;;
48161;SDS011;33950;48.154;16.316;2023-03-14T09:37:13;9.50;;;2.78;;
48161;SDS011;33950;48.154;16.316;2023-03-14T09:40:01;15.77;;;3.35;;
48161;SDS011;33950;48.154;16.316;2023-03-14T09:42:56;8.88;;;2.53;;
48161;SDS011;33950;48.154;16.316;2023-03-14T09:45:44;4.30;;;1.90;;
48161;SDS011;33950;48.154;16.316;2023-03-14T09:48:33;7.80;;;2.15;;
48161;SDS011;33950;48.154;16.316;2023-03-14T09:51:20;9.02;;;3.92;;
48161;SDS011;33950;48.154;16.316;2023-03-14T09:54:10;13.50;;;4.25;;
48161;SDS011;33950;48.154;16.316;2023-03-14T09:57:12;13.10;;;4.47;;
48161;SDS011;33950;48.154;16.316;2023-03-14T10:00:04;13.60;;;4.55;;
48161;SDS011;33950;48.154;16.316;2023-03-14T10:03:00;15.98;;;4.40;;
48161;SDS011;33950;48.154;16.316;2023-03-14T10:06:09;16.25;;;5.13;;
48161;SDS011;33950;48.154;16.316;2023-03-14T10:08:57;17.95;;;5.40;;
48161;SDS011;33950;48.154;16.316;2023-03-14T10:11:43;16.08;;;6.32;;
48161;SDS011;33950;48.154;16.316;2023-03-14T10:14:30;12.60;;;6.10;;
48161;SDS011;33950;48.154;16.316;2023-03-14T10:17:19;17.35;;;4.63;;
48161;SDS011;33950;48.154;16.316;2023-03-14T10:20:06;9.63;;;3.25;;
48161;SDS011;33950;48.154;16.316;2023-03-14T10:23:20;6.00;;;2.03;;
48161;SDS011;33950;48.154;16.316;2023-03-14T10:26:12;5.15;;;1.77;;
48161;SDS011;33950;48.154;16.316;2023-03-14T10:29:01;3.33;;;1.50;;
48161;SDS011;33950;48.154;16.316;2023-03-14T10:31:50;0.30;;;0.30;;
48161;SDS011;33950;48.154;16.316;2023-03-14T10:34:39;0.43;;;0.20;;
48161;SDS011;33950;48.154;16.316;2023-03-14T10:37:25;8.80;;;0.68;;
48161;SDS011;33950;48.154;16.316;2023-03-14T10:40:13;0.30;;;0.10;;
48161;SDS011;33950;48.154;16.316;2023-03-14T10:42:59;3.00;;;0.47;;
48161;SDS011;33950;48.154;16.316;2023-03-14T10:45:51;2.42;;;0.40;;
48161;SDS011;33950;48.154;16.316;2023-03-14T10:48:43;3.70;;;0.40;;
48161;SDS011;33950;48.154;16.316;2023-03-14T10:51:32;2.17;;;0.20;;
48161;SDS011;33950;48.154;16.316;2023-03-14T10:54:19;4.13;;;0.20;;
48161;SDS011;33950;48.154;16.316;2023-03-14T10:57:06;2.40;;;0.30;;
48161;SDS011;33950;48.154;16.316;2023-03-14T10:59:53;0.60;;;0.30;;
48161;SDS011;33950;48.154;16.316;2023-03-14T11:02:46;0.47;;;0.30;;
48161;SDS011;33950;48.154;16.316;2023-03-14T11:05:43;1.67;;;0.30;;
48161;SDS011;33950;48.154;16.316;2023-03-14T11:08:37;3.63;;;0.30;;
48161;SDS011;33950;48.154;16.316;2023-03-14T11:11:31;3.58;;;0.20;;
48161;SDS011;33950;48.154;16.316;2023-03-14T11:14:20;1.20;;;0.82;;
48161;SDS011;33950;48.154;16.316;2023-03-14T11:17:14;3.92;;;0.13;;
48161;SDS011;33950;48.154;16.316;2023-03-14T11:20:12;0.03;;;0.03;;
48161;SDS011;33950;48.154;16.316;2023-03-14T11:23:12;1.02;;;0.40;;
48161;SDS011;33950;48.154;16.316;2023-03-14T11:26:14;0.73;;;0.20;;
48161;SDS011;33950;48.154;16.316;2023-03-14T11:29:12;1.63;;;0.50;;
48161;SDS011;33950;48.154;16.316;2023-03-14T11:32:10;1.55;;;0.30;;
48161;SDS011;33950;48.154;16.316;2023-03-14T11:34:59;0.28;;;0.10;;
48161;SDS011;33950;48.154;16.316;2023-03-14T11:37:51;0.10;;;0.10;;
48161;SDS011;33950;48.154;16.316;2023-03-14T11:40:39;0.55;;;0.25;;
48161;SDS011;33950;48.154;16.316;2023-03-14T11:43:29;0.03;;;0.00;;
48161;SDS011;33950;48.154;16.316;2023-03-14T11:46:18;1.90;;;0.20;;
48161;SDS011;33950;48.154;16.316;2023-03-14T11:49:11;3.13;;;0.10;;
48161;SDS011;33950;48.154;16.316;2023-03-14T11:52:05;0.32;;;0.20;;
48161;SDS011;33950;48.154;16.316;2023-03-14T11:54:55;1.45;;;0.30;;
48161;SDS011;33950;48.154;16.316;2023-03-14T11:57:44;2.97;;;0.70;;
48161;SDS011;33950;48.154;16.316;2023-03-14T12:00:33;1.13;;;0.20;;
48161;SDS011;33950;48.154;16.316;2023-03-14T12:03:22;0.75;;;0.22;;
48161;SDS011;33950;48.154;16.316;2023-03-14T12:06:15;1.95;;;0.28;;
48161;SDS011;33950;48.154;16.316;2023-03-14T12:09:05;3.70;;;0.40;;
48161;SDS011;33950;48.154;16.316;2023-03-14T12:11:52;1.33;;;0.20;;
48161;SDS011;33950;48.154;16.316;2023-03-14T12:14:44;3.17;;;0.32;;
48161;SDS011;33950;48.154;16.316;2023-03-14T12:17:35;0.70;;;0.20;;
48161;SDS011;33950;48.154;16.316;2023-03-14T12:20:24;2.53;;;0.65;;
48161;SDS011;33950;48.154;16.316;2023-03-14T12:23:11;0.90;;;0.20;;
48161;SDS011;33950;48.154;16.316;2023-03-14T12:26:07;1.23;;;0.40;;
48161;SDS011;33950;48.154;16.316;2023-03-14T12:29:11;0.75;;;0.20;;
48161;SDS011;33950;48.154;16.316;2023-03-14T12:32:21;0.80;;;0.28;;
48161;SDS011;33950;48.154;16.316;2023-03-14T12:38:23;0.70;;;0.25;;
48161;SDS011;33950;48.154;16.316;2023-03-14T12:41:17;5.18;;;0.32;;
48161;SDS011;33950;48.154;16.316;2023-03-14T12:50:33;1.27;;;0.20;;
48161;SDS011;33950;48.154;16.316;2023-03-14T12:53:34;1.35;;;0.43;;
48161;SDS011;33950;48.154;16.316;2023-03-14T12:56:37;1.25;;;0.50;;
48161;SDS011;33950;48.154;16.316;2023-03-14T12:59:34;1.03;;;0.37;;
48161;SDS011;33950;48.154;16.316;2023-03-14T13:02:23;1.13;;;0.22;;
48161;SDS011;33950;48.154;16.316;2023-03-14T13:05:11;6.28;;;0.60;;
48161;SDS011;33950;48.154;16.316;2023-03-14T13:08:05;1.02;;;0.20;;
48161;SDS011;33950;48.154;16.316;2023-03-14T13:10:54;2.05;;;0.25;;
48161;SDS011;33950;48.154;16.316;2023-03-14T13:13:42;1.17;;;0.10;;
48161;SDS011;33950;48.154;16.316;2023-03-14T13:16:31;0.10;;;0.10;;
48161;SDS011;33950;48.154;16.316;2023-03-14T13:19:22;0.52;;;0.20;;
48161;SDS011;33950;48.154;16.316;2023-03-14T13:22:15;1.25;;;0.28;;
48161;SDS011;33950;48.154;16.316;2023-03-14T13:25:09;0.40;;;0.20;;
48161;SDS011;33950;48.154;16.316;2023-03-14T13:27:56;2.92;;;0.20;;
48161;SDS011;33950;48.154;16.316;2023-03-14T13:30:44;1.90;;;0.20;;
48161;SDS011;33950;48.154;16.316;2023-03-14T13:33:32;3.38;;;0.10;;
48161;SDS011;33950;48.154;16.316;2023-03-14T13:36:21;1.85;;;0.15;;
48161;SDS011;33950;48.154;16.316;2023-03-14T13:39:09;1.95;;;0.73;;
48161;SDS011;33950;48.154;16.316;2023-03-14T13:42:00;1.65;;;0.30;;
48161;SDS011;33950;48.154;16.316;2023-03-14T13:44:47;0.20;;;0.00;;
48161;SDS011;33950;48.154;16.316;2023-03-14T13:47:33;1.42;;;0.15;;
48161;SDS011;33950;48.154;16.316;2023-03-14T13:50:24;0.25;;;0.10;;
48161;SDS011;33950;48.154;16.316;2023-03-14T13:53:11;0.65;;;0.25;;
48161;SDS011;33950;48.154;16.316;2023-03-14T13:56:00;1.10;;;0.20;;
48161;SDS011;33950;48.154;16.316;2023-03-14T13:58:49;0.63;;;0.22;;
48161;SDS011;33950;48.154;16.316;2023-03-14T14:01:35;3.45;;;0.20;;
48161;SDS011;33950;48.154;16.316;2023-03-14T14:04:24;0.30;;;0.10;;
48161;SDS011;33950;48.154;16.316;2023-03-14T14:07:13;4.50;;;0.30;;
48161;SDS011;33950;48.154;16.316;2023-03-14T14:10:04;0.22;;;0.15;;
48161;SDS011;33950;48.154;16.316;2023-03-14T14:12:52;1.30;;;0.25;;
48161;SDS011;33950;48.154;16.316;2023-03-14T14:15:44;0.90;;;0.10;;
48161;SDS011;33950;48.154;16.316;2023-03-14T14:18:33;1.08;;;0.40;;
48161;SDS011;33950;48.154;16.316;2023-03-14T14:21:20;2.67;;;1.30;;
48161;SDS011;33950;48.154;16.316;2023-03-14T14:24:07;0.90;;;0.30;;
48161;SDS011;33950;48.154;16.316;2023-03-14T14:26:58;0.28;;;0.17;;
48161;SDS011;33950;48.154;16.316;2023-03-14T14:29:55;0.22;;;0.10;;
48161;SDS011;33950;48.154;16.316;2023-03-14T14:32:45;0.52;;;0.20;;
48161;SDS011;33950;48.154;16.316;2023-03-14T14:35:33;1.58;;;0.30;;
48161;SDS011;33950;48.154;16.316;2023-03-14T14:38:20;3.47;;;0.22;;
48161;SDS011;33950;48.154;16.316;2023-03-14T14:41:10;0.10;;;0.08;;
48161;SDS011;33950;48.154;16.316;2023-03-14T14:43:57;1.00;;;0.10;;
48161;SDS011;33950;48.154;16.316;2023-03-14T14:46:44;0.63;;;0.20;;
48161;SDS011;33950;48.154;16.316;2023-03-14T14:49:32;0.47;;;0.32;;
48161;SDS011;33950;48.154;16.316;2023-03-14T14:52:19;0.43;;;0.17;;
48161;SDS011;33950;48.154;16.316;2023-03-14T14:55:13;0.50;;;0.30;;
48161;SDS011;33950;48.154;16.316;2023-03-14T14:58:16;0.13;;;0.13;;
48161;SDS011;33950;48.154;16.316;2023-03-14T15:03:55;1.52;;;0.63;;
48161;SDS011;33950;48.154;16.316;2023-03-14T15:06:43;2.90;;;0.60;;
48161;SDS011;33950;48.154;16.316;2023-03-14T15:09:31;4.60;;;0.77;;
48161;SDS011;33950;48.154;16.316;2023-03-14T15:12:17;2.65;;;0.80;;
48161;SDS011;33950;48.154;16.316;2023-03-14T15:15:05;4.00;;;0.70;;
48161;SDS011;33950;48.154;16.316;2023-03-14T15:17:52;4.72;;;2.50;;
48161;SDS011;33950;48.154;16.316;2023-03-14T15:20:38;3.80;;;2.05;;
48161;SDS011;33950;48.154;16.316;2023-03-14T15:23:25;5.40;;;2.20;;
48161;SDS011;33950;48.154;16.316;2023-03-14T15:26:12;2.60;;;1.08;;
48161;SDS011;33950;48.154;16.316;2023-03-14T15:29:00;2.33;;;0.70;;
48161;SDS011;33950;48.154;16.316;2023-03-14T15:31:46;2.95;;;1.27;;
48161;SDS011;33950;48.154;16.316;2023-03-14T15:34:32;1.65;;;1.05;;
48161;SDS011;33950;48.154;16.316;2023-03-14T15:37:18;3.38;;;1.75;;
48161;SDS011;33950;48.154;16.316;2023-03-14T15:40:09;6.03;;;2.22;;
48161;SDS011;33950;48.154;16.316;2023-03-14T15:42:59;3.53;;;1.85;;
48161;SDS011;33950;48.154;16.316;2023-03-14T15:45:45;2.88;;;1.20;;
48161;SDS011;33950;48.154;16.316;2023-03-14T15:48:31;4.47;;;1.40;;
48161;SDS011;33950;48.154;16.316;2023-03-14T15:51:17;7.82;;;1.70;;
48161;SDS011;33950;48.154;16.316;2023-03-14T15:54:03;4.80;;;1.58;;
48161;SDS011;33950;48.154;16.316;2023-03-14T15:56:51;7.72;;;1.50;;
48161;SDS011;33950;48.154;16.316;2023-03-14T15:59:37;2.55;;;0.77;;
48161;SDS011;33950;48.154;16.316;2023-03-14T16:02:23;4.30;;;0.80;;
48161;SDS011;33950;48.154;16.316;2023-03-14T16:05:09;4.93;;;1.33;;
48161;SDS011;33950;48.154;16.316;2023-03-14T16:07:56;1.63;;;0.90;;
48161;SDS011;33950;48.154;16.316;2023-03-14T16:10:43;4.18;;;1.05;;
48161;SDS011;33950;48.154;16.316;2023-03-14T16:13:31;8.45;;;4.47;;
48161;SDS011;33950;48.154;16.316;2023-03-14T16:16:17;13.10;;;6.45;;
48161;SDS011;33950;48.154;16.316;2023-03-14T16:19:08;7.07;;;3.42;;
48161;SDS011;33950;48.154;16.316;2023-03-14T16:21:54;3.42;;;1.25;;
48161;SDS011;33950;48.154;16.316;2023-03-14T16:24:40;7.47;;;1.33;;
48161;SDS011;33950;48.154;16.316;2023-03-14T16:27:29;2.05;;;0.93;;
48161;SDS011;33950;48.154;16.316;2023-03-14T16:30:17;3.60;;;1.25;;
48161;SDS011;33950;48.154;16.316;2023-03-14T16:33:03;12.50;;;0.95;;
48161;SDS011;33950;48.154;16.316;2023-03-14T16:35:54;5.45;;;1.55;;
48161;SDS011;33950;48.154;16.316;2023-03-14T16:38:41;5.03;;;1.77;;
48161;SDS011;33950;48.154;16.316;2023-03-14T16:41:29;8.90;;;1.80;;
48161;SDS011;33950;48.154;16.316;2023-03-14T16:44:16;16.17;;;2.78;;